Stardust — WDG8792 — position and weather

sailwx.info

Track history (hours):
 
Tides and Currents Weather Stations Pressure Air Temp Water Temp Dewpoint Dewpoint Depression Visibility Wind Speed Wind Dir Waves Ship Positions

Stardust

Owner: Harley Marine Services, Inc, Seattle, WA. More information available from US FCC via Universal Licensing System and Coast Guard Vessel Documentation Center.

Last reported at 2018-Feb-18 06:11 UTC. Time now 2018-Feb-18 07:06 UTC.
Position N 29°45' W 095°06'.

Length 23 m; draft 2 m.

Type: Tug. MMSI: 367581120.

Date/timePositionNaut miles runAvg speedWind from/ knotsBaromVisibWave heightAir tempDewpointWater temp
2018-Feb-18 06:11N 29°45' W 095°06'0 0.0
2018-Feb-18 05:48N 29°45' W 095°06'0 0.1
2018-Feb-18 05:28N 29°45' W 095°06'1 0.1
2018-Feb-17 23:05N 29°44' W 095°07'3 0.3
2018-Feb-17 13:04N 29°45' W 095°04'0 2.1
2018-Feb-17 12:59N 29°45' W 095°04'2 3.6
2018-Feb-17 12:30N 29°44' W 095°03'0 0.2
2018-Feb-17 12:00N 29°44' W 095°03'0 0.0
2018-Feb-17 03:58N 29°44' W 095°03'0 0.0
2018-Feb-17 03:29N 29°44' W 095°03'2 4.0
2018-Feb-17 03:00N 29°43' W 095°01'4 7.3
2018-Feb-17 02:30N 29°40' W 094°59'4 7.9
2018-Feb-17 02:00N 29°36' W 094°57'4 7.9
2018-Feb-17 01:30N 29°33' W 094°55'5 7.8
2018-Feb-17 00:50N 29°29' W 094°51'4 9.0
2018-Feb-17 00:21N 29°25' W 094°49'3 7.5
2018-Feb-16 23:58N 29°22' W 094°49'3 0.2
2018-Feb-16 06:05N 29°21' W 094°45'0 0.0
2018-Feb-16 04:39N 29°21' W 094°45'0 0.1
2018-Feb-16 04:20N 29°21' W 094°45'0 0.0
2018-Feb-16 03:56N 29°21' W 094°45'0 0.0
2018-Feb-16 00:18N 29°21' W 094°45'0 0.0
2018-Feb-15 23:53N 29°21' W 094°45'0 0.0
2018-Feb-15 20:39N 29°21' W 094°45'9 1.0
2018-Feb-15 11:41N 29°22' W 094°55'0 0.0
2018-Feb-15 10:27N 29°22' W 094°55'0 0.0
2018-Feb-15 09:05N 29°22' W 094°55'0 0.0
2018-Feb-15 08:55N 29°22' W 094°55'0 0.0
2018-Feb-15 08:30N 29°22' W 094°55'0 0.0
2018-Feb-15 07:52N 29°22' W 094°55'0 0.0
2018-Feb-15 07:24N 29°22' W 094°55'0 0.0
2018-Feb-15 06:59N 29°22' W 094°55'0 0.0
2018-Feb-15 06:17N 29°22' W 094°55'0 0.0
2018-Feb-15 06:00N 29°22' W 094°55'0 0.0
2018-Feb-15 05:30N 29°22' W 094°55'0 0.0
2018-Feb-15 05:00N 29°22' W 094°55'0 0.0
2018-Feb-15 04:29N 29°22' W 094°55'0 0.0
2018-Feb-15 04:00N 29°22' W 094°55'0 0.0
2018-Feb-15 03:30N 29°22' W 094°55'0 0.0
2018-Feb-15 02:45N 29°22' W 094°55'1 0.5
2018-Feb-14 23:40N 29°22' W 094°53'4 5.3
2018-Feb-14 22:51N 29°22' W 094°48'3 6.5
2018-Feb-14 22:28N 29°19' W 094°47'1 0.8
2018-Feb-14 20:35N 29°19' W 094°48'0 0.0
2018-Feb-14 20:24N 29°19' W 094°48'0 0.0
2018-Feb-14 19:55N 29°19' W 094°48'0 0.0
2018-Feb-14 19:24N 29°19' W 094°48'0 0.0
2018-Feb-14 18:58N 29°19' W 094°48'0 0.0
2018-Feb-14 18:30N 29°19' W 094°48'0 0.0
2018-Feb-14 17:58N 29°19' W 094°48'0 0.0
2018-Feb-14 17:30N 29°19' W 094°48'0 0.0
2018-Feb-14 16:55N 29°19' W 094°48'0 0.0
2018-Feb-14 16:30N 29°19' W 094°48'0 0.0
2018-Feb-14 15:57N 29°19' W 094°48'0 0.0
2018-Feb-14 15:29N 29°19' W 094°48'0 0.0
2018-Feb-14 14:56N 29°19' W 094°48'0 0.0
2018-Feb-14 14:10N 29°19' W 094°48'1 1.4
2018-Feb-14 13:34N 29°19' W 094°47'  
2018-Feb-12 02:13N 29°33' W 094°55'1 5.9
2018-Feb-12 02:00N 29°34' W 094°55'3 5.7
2018-Feb-12 01:30N 29°36' W 094°57'3 5.9
2018-Feb-12 00:58N 29°39' W 094°58'3 5.6
2018-Feb-12 00:30N 29°42' W 094°60'2 0.0
2018-Feb-10 18:10N 29°42' W 095°01'1 5.2
2018-Feb-10 17:57N 29°42' W 094°60'1 2.3
2018-Feb-10 17:31N 29°41' W 094°60'0 0.8
2018-Feb-10 17:00N 29°41' W 095°00'0 0.0
2018-Feb-10 16:30N 29°41' W 095°00'0 0.3
2018-Feb-10 15:59N 29°41' W 095°00'0 0.1
2018-Feb-10 14:51N 29°41' W 095°00'0 0.0
2018-Feb-10 14:30N 29°41' W 095°00'0 0.0
2018-Feb-10 13:46N 29°41' W 095°00'0 0.0
2018-Feb-10 13:28N 29°41' W 095°00'0 0.0
2018-Feb-10 13:00N 29°41' W 095°00'0 0.0
2018-Feb-10 12:30N 29°41' W 095°00'0 0.0
2018-Feb-10 11:58N 29°41' W 095°00'0 0.0
2018-Feb-10 11:29N 29°41' W 095°00'0 0.0
2018-Feb-10 10:52N 29°41' W 095°00'0 0.0
2018-Feb-10 10:23N 29°41' W 095°00'0 0.0
2018-Feb-10 09:59N 29°41' W 095°00'0 0.0
2018-Feb-10 09:30N 29°41' W 095°00'0 0.0
2018-Feb-10 07:12N 29°41' W 095°00'0 0.0
2018-Feb-10 04:59N 29°41' W 095°00'0 0.0
2018-Feb-10 01:51N 29°41' W 095°00'0 0.0
2018-Feb-09 23:46N 29°41' W 095°00'0 0.2
2018-Feb-09 23:30N 29°41' W 095°00'1 2.0
2018-Feb-09 22:59N 29°42' W 094°60'3 4.2
2018-Feb-09 22:11N 29°44' W 095°03'4 0.2
2018-Feb-09 05:31N 29°41' W 094°59'  
Track history (hours):
 
Tides and Currents Weather Stations Pressure Air Temp Water Temp Dewpoint Dewpoint Depression Visibility Wind Speed Wind Dir Waves Ship Positions

Stardust

Owner: Harley Marine Services, Inc, Seattle, WA. More information available from US FCC via Universal Licensing System and Coast Guard Vessel Documentation Center.

Last reported at 2018-Feb-18 06:11 UTC. Time now 2018-Feb-18 07:06 UTC.
Position N 29°45' W 095°06'.

Length 23 m; draft 2 m.

Type: Tug. MMSI: 367581120.

Date/timePositionNaut miles runAvg speedWind from/ knotsBaromVisibWave heightAir tempDewpointWater temp
2018-Feb-18 06:11N 29°45' W 095°06'0 0.0
2018-Feb-18 05:48N 29°45' W 095°06'0 0.1
2018-Feb-18 05:28N 29°45' W 095°06'1 0.1
2018-Feb-17 23:05N 29°44' W 095°07'3 0.3
2018-Feb-17 13:04N 29°45' W 095°04'0 2.1
2018-Feb-17 12:59N 29°45' W 095°04'2 3.6
2018-Feb-17 12:30N 29°44' W 095°03'0 0.2
2018-Feb-17 12:00N 29°44' W 095°03'0 0.0
2018-Feb-17 03:58N 29°44' W 095°03'0 0.0
2018-Feb-17 03:29N 29°44' W 095°03'2 4.0
2018-Feb-17 03:00N 29°43' W 095°01'4 7.3
2018-Feb-17 02:30N 29°40' W 094°59'4 7.9
2018-Feb-17 02:00N 29°36' W 094°57'4 7.9
2018-Feb-17 01:30N 29°33' W 094°55'5 7.8
2018-Feb-17 00:50N 29°29' W 094°51'4 9.0
2018-Feb-17 00:21N 29°25' W 094°49'3 7.5
2018-Feb-16 23:58N 29°22' W 094°49'3 0.2
2018-Feb-16 06:05N 29°21' W 094°45'0 0.0
2018-Feb-16 04:39N 29°21' W 094°45'0 0.1
2018-Feb-16 04:20N 29°21' W 094°45'0 0.0
2018-Feb-16 03:56N 29°21' W 094°45'0 0.0
2018-Feb-16 00:18N 29°21' W 094°45'0 0.0
2018-Feb-15 23:53N 29°21' W 094°45'0 0.0
2018-Feb-15 20:39N 29°21' W 094°45'9 1.0
2018-Feb-15 11:41N 29°22' W 094°55'0 0.0
2018-Feb-15 10:27N 29°22' W 094°55'0 0.0
2018-Feb-15 09:05N 29°22' W 094°55'0 0.0
2018-Feb-15 08:55N 29°22' W 094°55'0 0.0
2018-Feb-15 08:30N 29°22' W 094°55'0 0.0
2018-Feb-15 07:52N 29°22' W 094°55'0 0.0
2018-Feb-15 07:24N 29°22' W 094°55'0 0.0
2018-Feb-15 06:59N 29°22' W 094°55'0 0.0
2018-Feb-15 06:17N 29°22' W 094°55'0 0.0
2018-Feb-15 06:00N 29°22' W 094°55'0 0.0
2018-Feb-15 05:30N 29°22' W 094°55'0 0.0
2018-Feb-15 05:00N 29°22' W 094°55'0 0.0
2018-Feb-15 04:29N 29°22' W 094°55'0 0.0
2018-Feb-15 04:00N 29°22' W 094°55'0 0.0
2018-Feb-15 03:30N 29°22' W 094°55'0 0.0
2018-Feb-15 02:45N 29°22' W 094°55'1 0.5
2018-Feb-14 23:40N 29°22' W 094°53'4 5.3
2018-Feb-14 22:51N 29°22' W 094°48'3 6.5
2018-Feb-14 22:28N 29°19' W 094°47'1 0.8
2018-Feb-14 20:35N 29°19' W 094°48'0 0.0
2018-Feb-14 20:24N 29°19' W 094°48'0 0.0
2018-Feb-14 19:55N 29°19' W 094°48'0 0.0
2018-Feb-14 19:24N 29°19' W 094°48'0 0.0
2018-Feb-14 18:58N 29°19' W 094°48'0 0.0
2018-Feb-14 18:30N 29°19' W 094°48'0 0.0
2018-Feb-14 17:58N 29°19' W 094°48'0 0.0
2018-Feb-14 17:30N 29°19' W 094°48'0 0.0
2018-Feb-14 16:55N 29°19' W 094°48'0 0.0
2018-Feb-14 16:30N 29°19' W 094°48'0 0.0
2018-Feb-14 15:57N 29°19' W 094°48'0 0.0
2018-Feb-14 15:29N 29°19' W 094°48'0 0.0
2018-Feb-14 14:56N 29°19' W 094°48'0 0.0
2018-Feb-14 14:10N 29°19' W 094°48'1 1.4
2018-Feb-14 13:34N 29°19' W 094°47'  
2018-Feb-12 02:13N 29°33' W 094°55'1 5.9
2018-Feb-12 02:00N 29°34' W 094°55'3 5.7
2018-Feb-12 01:30N 29°36' W 094°57'3 5.9
2018-Feb-12 00:58N 29°39' W 094°58'3 5.6
2018-Feb-12 00:30N 29°42' W 094°60'2 0.0
2018-Feb-10 18:10N 29°42' W 095°01'1 5.2
2018-Feb-10 17:57N 29°42' W 094°60'1 2.3
2018-Feb-10 17:31N 29°41' W 094°60'0 0.8
2018-Feb-10 17:00N 29°41' W 095°00'0 0.0
2018-Feb-10 16:30N 29°41' W 095°00'0 0.3
2018-Feb-10 15:59N 29°41' W 095°00'0 0.1
2018-Feb-10 14:51N 29°41' W 095°00'0 0.0
2018-Feb-10 14:30N 29°41' W 095°00'0 0.0
2018-Feb-10 13:46N 29°41' W 095°00'0 0.0
2018-Feb-10 13:28N 29°41' W 095°00'0 0.0
2018-Feb-10 13:00N 29°41' W 095°00'0 0.0
2018-Feb-10 12:30N 29°41' W 095°00'0 0.0
2018-Feb-10 11:58N 29°41' W 095°00'0 0.0
2018-Feb-10 11:29N 29°41' W 095°00'0 0.0
2018-Feb-10 10:52N 29°41' W 095°00'0 0.0
2018-Feb-10 10:23N 29°41' W 095°00'0 0.0
2018-Feb-10 09:59N 29°41' W 095°00'0 0.0
2018-Feb-10 09:30N 29°41' W 095°00'0 0.0
2018-Feb-10 07:12N 29°41' W 095°00'0 0.0
2018-Feb-10 04:59N 29°41' W 095°00'0 0.0
2018-Feb-10 01:51N 29°41' W 095°00'0 0.0
2018-Feb-09 23:46N 29°41' W 095°00'0 0.2
2018-Feb-09 23:30N 29°41' W 095°00'1 2.0
2018-Feb-09 22:59N 29°42' W 094°60'3 4.2
2018-Feb-09 22:11N 29°44' W 095°03'4 0.2
2018-Feb-09 05:31N 29°41' W 094°59'  

Dump ship's entire track history